sensor_id;sensor_type;location;lat;lon;timestamp;temperature;humidity
21207;DHT22;10761;48.532;8.026;2023-04-23T00:00:43;12.20;99.90
21207;DHT22;10761;48.532;8.026;2023-04-23T00:03:11;12.20;99.90
21207;DHT22;10761;48.532;8.026;2023-04-23T00:05:39;12.20;99.90
21207;DHT22;10761;48.532;8.026;2023-04-23T00:08:07;12.10;99.90
21207;DHT22;10761;48.532;8.026;2023-04-23T00:10:34;12.10;99.90
21207;DHT22;10761;48.532;8.026;2023-04-23T00:13:00;12.10;99.90
21207;DHT22;10761;48.532;8.026;2023-04-23T00:15:26;12.10;99.90
21207;DHT22;10761;48.532;8.026;2023-04-23T00:17:52;12.10;99.90
21207;DHT22;10761;48.532;8.026;2023-04-23T00:20:17;12.10;99.90
21207;DHT22;10761;48.532;8.026;2023-04-23T00:22:43;12.10;99.90
21207;DHT22;10761;48.532;8.026;2023-04-23T00:25:09;12.10;99.90
21207;DHT22;10761;48.532;8.026;2023-04-23T00:27:35;12.10;99.90
21207;DHT22;10761;48.532;8.026;2023-04-23T00:30:02;12.10;99.90
21207;DHT22;10761;48.532;8.026;2023-04-23T00:32:28;12.10;99.90
21207;DHT22;10761;48.532;8.026;2023-04-23T00:34:54;12.10;99.90
21207;DHT22;10761;48.532;8.026;2023-04-23T00:37:21;12.10;99.90
21207;DHT22;10761;48.532;8.026;2023-04-23T00:39:46;12.10;99.90
21207;DHT22;10761;48.532;8.026;2023-04-23T00:42:12;12.10;99.90
21207;DHT22;10761;48.532;8.026;2023-04-23T00:44:39;12.10;99.90
21207;DHT22;10761;48.532;8.026;2023-04-23T00:47:05;12.10;99.90
21207;DHT22;10761;48.532;8.026;2023-04-23T00:49:33;12.10;99.90
21207;DHT22;10761;48.532;8.026;2023-04-23T00:51:58;12.10;99.90
21207;DHT22;10761;48.532;8.026;2023-04-23T00:54:25;12.10;99.90
21207;DHT22;10761;48.532;8.026;2023-04-23T00:56:51;12.10;99.90
21207;DHT22;10761;48.532;8.026;2023-04-23T00:59:18;12.10;99.90
21207;DHT22;10761;48.532;8.026;2023-04-23T01:01:44;12.10;99.90
21207;DHT22;10761;48.532;8.026;2023-04-23T01:04:11;12.10;99.90
21207;DHT22;10761;48.532;8.026;2023-04-23T01:06:39;12.10;99.90
21207;DHT22;10761;48.532;8.026;2023-04-23T01:09:06;12.10;99.90
21207;DHT22;10761;48.532;8.026;2023-04-23T01:11:36;12.10;99.90
21207;DHT22;10761;48.532;8.026;2023-04-23T01:14:03;12.00;99.90
21207;DHT22;10761;48.532;8.026;2023-04-23T01:16:29;12.00;99.90
21207;DHT22;10761;48.532;8.026;2023-04-23T01:18:55;12.00;99.90
21207;DHT22;10761;48.532;8.026;2023-04-23T01:21:21;12.10;99.90
21207;DHT22;10761;48.532;8.026;2023-04-23T01:23:48;12.10;99.90
21207;DHT22;10761;48.532;8.026;2023-04-23T01:26:14;12.10;99.90
21207;DHT22;10761;48.532;8.026;2023-04-23T01:28:41;12.10;99.90
21207;DHT22;10761;48.532;8.026;2023-04-23T01:31:08;12.10;99.90
21207;DHT22;10761;48.532;8.026;2023-04-23T01:33:34;12.10;99.90
21207;DHT22;10761;48.532;8.026;2023-04-23T01:36:01;12.10;99.90
21207;DHT22;10761;48.532;8.026;2023-04-23T01:38:29;12.10;99.90
21207;DHT22;10761;48.532;8.026;2023-04-23T01:40:55;12.00;99.90
21207;DHT22;10761;48.532;8.026;2023-04-23T01:43:21;12.00;99.90
21207;DHT22;10761;48.532;8.026;2023-04-23T01:45:47;12.00;99.90
21207;DHT22;10761;48.532;8.026;2023-04-23T01:48:13;12.00;99.90
21207;DHT22;10761;48.532;8.026;2023-04-23T01:50:39;11.90;99.90
21207;DHT22;10761;48.532;8.026;2023-04-23T01:53:05;12.00;99.90
21207;DHT22;10761;48.532;8.026;2023-04-23T01:55:30;12.00;99.90
21207;DHT22;10761;48.532;8.026;2023-04-23T01:57:57;12.00;99.90
21207;DHT22;10761;48.532;8.026;2023-04-23T02:00:22;12.00;99.90
21207;DHT22;10761;48.532;8.026;2023-04-23T02:02:48;11.90;99.90
21207;DHT22;10761;48.532;8.026;2023-04-23T02:05:17;11.90;99.90
21207;DHT22;10761;48.532;8.026;2023-04-23T02:07:44;11.90;99.90
21207;DHT22;10761;48.532;8.026;2023-04-23T02:10:10;11.90;99.90
21207;DHT22;10761;48.532;8.026;2023-04-23T02:12:37;11.90;99.90
21207;DHT22;10761;48.532;8.026;2023-04-23T02:15:03;11.80;99.90
21207;DHT22;10761;48.532;8.026;2023-04-23T02:17:29;11.80;99.90
21207;DHT22;10761;48.532;8.026;2023-04-23T02:19:55;11.80;99.90
21207;DHT22;10761;48.532;8.026;2023-04-23T02:22:21;11.80;99.90
21207;DHT22;10761;48.532;8.026;2023-04-23T02:24:49;11.80;99.90
21207;DHT22;10761;48.532;8.026;2023-04-23T02:27:15;11.80;99.90
21207;DHT22;10761;48.532;8.026;2023-04-23T02:29:41;11.80;99.90
21207;DHT22;10761;48.532;8.026;2023-04-23T02:32:07;11.80;99.90
21207;DHT22;10761;48.532;8.026;2023-04-23T02:34:32;11.90;99.90
21207;DHT22;10761;48.532;8.026;2023-04-23T02:36:58;11.90;99.90
21207;DHT22;10761;48.532;8.026;2023-04-23T02:39:24;11.90;99.90
21207;DHT22;10761;48.532;8.026;2023-04-23T02:41:49;11.80;99.90
21207;DHT22;10761;48.532;8.026;2023-04-23T02:44:15;11.70;99.90
21207;DHT22;10761;48.532;8.026;2023-04-23T02:46:41;11.80;99.90
21207;DHT22;10761;48.532;8.026;2023-04-23T02:49:06;11.80;99.90
21207;DHT22;10761;48.532;8.026;2023-04-23T02:51:32;11.80;99.90
21207;DHT22;10761;48.532;8.026;2023-04-23T02:53:58;11.80;99.90
21207;DHT22;10761;48.532;8.026;2023-04-23T02:56:24;11.80;99.90
21207;DHT22;10761;48.532;8.026;2023-04-23T02:58:49;11.80;99.90
21207;DHT22;10761;48.532;8.026;2023-04-23T03:01:15;11.80;99.90
21207;DHT22;10761;48.532;8.026;2023-04-23T03:03:41;11.70;99.90
21207;DHT22;10761;48.532;8.026;2023-04-23T03:06:07;11.60;99.90
21207;DHT22;10761;48.532;8.026;2023-04-23T03:08:33;11.60;99.90
21207;DHT22;10761;48.532;8.026;2023-04-23T03:10:58;11.70;99.90
21207;DHT22;10761;48.532;8.026;2023-04-23T03:13:25;11.60;99.90
21207;DHT22;10761;48.532;8.026;2023-04-23T03:15:52;11.60;99.90
21207;DHT22;10761;48.532;8.026;2023-04-23T03:18:18;11.60;99.90
21207;DHT22;10761;48.532;8.026;2023-04-23T03:20:44;11.60;99.90
21207;DHT22;10761;48.532;8.026;2023-04-23T03:23:10;11.60;99.90
21207;DHT22;10761;48.532;8.026;2023-04-23T03:25:35;11.60;99.90
21207;DHT22;10761;48.532;8.026;2023-04-23T03:28:01;11.60;99.90
21207;DHT22;10761;48.532;8.026;2023-04-23T03:30:28;11.60;99.90
21207;DHT22;10761;48.532;8.026;2023-04-23T03:32:55;11.60;99.90
21207;DHT22;10761;48.532;8.026;2023-04-23T03:35:24;11.60;99.90
21207;DHT22;10761;48.532;8.026;2023-04-23T03:37:51;11.70;99.90
21207;DHT22;10761;48.532;8.026;2023-04-23T03:40:17;11.70;99.90
21207;DHT22;10761;48.532;8.026;2023-04-23T03:42:43;11.70;99.90
21207;DHT22;10761;48.532;8.026;2023-04-23T03:45:09;11.70;99.90
21207;DHT22;10761;48.532;8.026;2023-04-23T03:47:35;11.70;99.90
21207;DHT22;10761;48.532;8.026;2023-04-23T03:50:01;11.70;99.90
21207;DHT22;10761;48.532;8.026;2023-04-23T03:52:27;11.70;99.90
21207;DHT22;10761;48.532;8.026;2023-04-23T03:54:52;11.70;99.90
21207;DHT22;10761;48.532;8.026;2023-04-23T03:57:19;11.70;99.90
21207;DHT22;10761;48.532;8.026;2023-04-23T03:59:45;11.60;99.90
21207;DHT22;10761;48.532;8.026;2023-04-23T04:02:10;11.60;99.90
21207;DHT22;10761;48.532;8.026;2023-04-23T04:04:36;11.50;99.90
21207;DHT22;10761;48.532;8.026;2023-04-23T04:07:02;11.50;99.90
21207;DHT22;10761;48.532;8.026;2023-04-23T04:09:27;11.50;99.90
21207;DHT22;10761;48.532;8.026;2023-04-23T04:11:53;11.50;99.90
21207;DHT22;10761;48.532;8.026;2023-04-23T04:14:20;11.40;99.90
21207;DHT22;10761;48.532;8.026;2023-04-23T04:16:45;11.40;99.90
21207;DHT22;10761;48.532;8.026;2023-04-23T04:19:11;11.30;99.90
21207;DHT22;10761;48.532;8.026;2023-04-23T04:21:36;11.30;99.90
21207;DHT22;10761;48.532;8.026;2023-04-23T04:24:02;11.20;99.90
21207;DHT22;10761;48.532;8.026;2023-04-23T04:26:29;11.20;99.90
21207;DHT22;10761;48.532;8.026;2023-04-23T04:28:57;11.20;99.90
21207;DHT22;10761;48.532;8.026;2023-04-23T04:31:24;11.20;99.90
21207;DHT22;10761;48.532;8.026;2023-04-23T04:33:50;11.30;99.90
21207;DHT22;10761;48.532;8.026;2023-04-23T04:36:15;11.30;99.90
21207;DHT22;10761;48.532;8.026;2023-04-23T04:38:41;11.20;99.90
21207;DHT22;10761;48.532;8.026;2023-04-23T04:41:08;11.20;99.90
21207;DHT22;10761;48.532;8.026;2023-04-23T04:43:33;11.10;99.90
21207;DHT22;10761;48.532;8.026;2023-04-23T04:45:59;10.90;99.90
21207;DHT22;10761;48.532;8.026;2023-04-23T04:48:25;10.80;99.90
21207;DHT22;10761;48.532;8.026;2023-04-23T04:50:51;10.80;99.90
21207;DHT22;10761;48.532;8.026;2023-04-23T04:53:16;10.80;99.90
21207;DHT22;10761;48.532;8.026;2023-04-23T04:55:42;10.80;99.90
21207;DHT22;10761;48.532;8.026;2023-04-23T04:58:07;10.70;99.90
21207;DHT22;10761;48.532;8.026;2023-04-23T05:00:33;10.70;99.90
21207;DHT22;10761;48.532;8.026;2023-04-23T05:02:59;10.70;99.90
21207;DHT22;10761;48.532;8.026;2023-04-23T05:05:25;10.70;99.90
21207;DHT22;10761;48.532;8.026;2023-04-23T05:07:52;10.70;99.90
21207;DHT22;10761;48.532;8.026;2023-04-23T05:10:19;10.70;99.90
21207;DHT22;10761;48.532;8.026;2023-04-23T05:12:45;10.70;99.90
21207;DHT22;10761;48.532;8.026;2023-04-23T05:15:13;10.70;99.90
21207;DHT22;10761;48.532;8.026;2023-04-23T05:17:39;10.70;99.90
21207;DHT22;10761;48.532;8.026;2023-04-23T05:20:05;10.70;99.90
21207;DHT22;10761;48.532;8.026;2023-04-23T05:22:31;10.70;99.90
21207;DHT22;10761;48.532;8.026;2023-04-23T05:24:56;10.70;99.90
21207;DHT22;10761;48.532;8.026;2023-04-23T05:27:22;10.80;99.90
21207;DHT22;10761;48.532;8.026;2023-04-23T05:29:48;10.80;99.90
21207;DHT22;10761;48.532;8.026;2023-04-23T05:32:13;11.00;99.90
21207;DHT22;10761;48.532;8.026;2023-04-23T05:34:39;11.10;99.90
21207;DHT22;10761;48.532;8.026;2023-04-23T05:37:05;11.30;99.90
21207;DHT22;10761;48.532;8.026;2023-04-23T05:39:30;11.50;99.90
21207;DHT22;10761;48.532;8.026;2023-04-23T05:41:56;11.60;99.90
21207;DHT22;10761;48.532;8.026;2023-04-23T05:44:22;11.70;59.10
21207;DHT22;10761;48.532;8.026;2023-04-23T05:46:48;11.70;29.30
21207;DHT22;10761;48.532;8.026;2023-04-23T05:49:14;11.80;24.50
21207;DHT22;10761;48.532;8.026;2023-04-23T05:51:39;11.90;18.10
21207;DHT22;10761;48.532;8.026;2023-04-23T05:54:05;12.00;6.50
21207;DHT22;10761;48.532;8.026;2023-04-23T05:56:30;12.00;1.00
21207;DHT22;10761;48.532;8.026;2023-04-23T05:58:56;12.20;1.00
21207;DHT22;10761;48.532;8.026;2023-04-23T06:01:22;12.30;1.00
21207;DHT22;10761;48.532;8.026;2023-04-23T06:03:48;12.40;1.00
21207;DHT22;10761;48.532;8.026;2023-04-23T06:06:13;12.60;1.00
21207;DHT22;10761;48.532;8.026;2023-04-23T06:08:39;12.80;1.00
21207;DHT22;10761;48.532;8.026;2023-04-23T06:11:05;13.00;1.00
21207;DHT22;10761;48.532;8.026;2023-04-23T06:13:32;13.30;1.00
21207;DHT22;10761;48.532;8.026;2023-04-23T06:15:57;13.50;99.90
21207;DHT22;10761;48.532;8.026;2023-04-23T06:18:23;13.80;1.00
21207;DHT22;10761;48.532;8.026;2023-04-23T06:20:49;14.00;1.00
21207;DHT22;10761;48.532;8.026;2023-04-23T06:23:16;14.20;1.00
21207;DHT22;10761;48.532;8.026;2023-04-23T06:25:41;14.40;99.90
21207;DHT22;10761;48.532;8.026;2023-04-23T06:28:07;14.40;1.00
21207;DHT22;10761;48.532;8.026;2023-04-23T06:30:33;14.60;99.90
21207;DHT22;10761;48.532;8.026;2023-04-23T06:32:58;14.70;1.00
21207;DHT22;10761;48.532;8.026;2023-04-23T06:35:24;15.00;1.00
21207;DHT22;10761;48.532;8.026;2023-04-23T06:37:50;15.10;1.00
21207;DHT22;10761;48.532;8.026;2023-04-23T06:40:15;15.20;1.00
21207;DHT22;10761;48.532;8.026;2023-04-23T06:42:41;15.30;99.90
21207;DHT22;10761;48.532;8.026;2023-04-23T06:45:07;15.60;99.90
21207;DHT22;10761;48.532;8.026;2023-04-23T06:47:33;15.80;1.00
21207;DHT22;10761;48.532;8.026;2023-04-23T06:49:58;15.80;1.00
21207;DHT22;10761;48.532;8.026;2023-04-23T06:52:24;16.10;1.00
21207;DHT22;10761;48.532;8.026;2023-04-23T06:54:50;16.20;1.00
21207;DHT22;10761;48.532;8.026;2023-04-23T06:57:16;16.30;99.90
21207;DHT22;10761;48.532;8.026;2023-04-23T06:59:42;16.30;1.00
21207;DHT22;10761;48.532;8.026;2023-04-23T07:02:07;16.10;99.90
21207;DHT22;10761;48.532;8.026;2023-04-23T07:04:33;15.90;99.90
21207;DHT22;10761;48.532;8.026;2023-04-23T07:06:58;15.70;1.00
21207;DHT22;10761;48.532;8.026;2023-04-23T07:09:28;15.70;99.90
21207;DHT22;10761;48.532;8.026;2023-04-23T07:11:53;15.80;99.90
21207;DHT22;10761;48.532;8.026;2023-04-23T07:14:19;15.60;99.90
21207;DHT22;10761;48.532;8.026;2023-04-23T07:16:45;15.30;1.00
21207;DHT22;10761;48.532;8.026;2023-04-23T07:19:10;15.40;1.00
21207;DHT22;10761;48.532;8.026;2023-04-23T07:21:36;15.00;1.00
21207;DHT22;10761;48.532;8.026;2023-04-23T07:24:01;14.80;1.00
21207;DHT22;10761;48.532;8.026;2023-04-23T07:26:31;15.10;99.90
21207;DHT22;10761;48.532;8.026;2023-04-23T07:28:57;15.30;1.00
21207;DHT22;10761;48.532;8.026;2023-04-23T07:31:23;15.90;1.00
21207;DHT22;10761;48.532;8.026;2023-04-23T07:33:48;15.60;99.90
21207;DHT22;10761;48.532;8.026;2023-04-23T07:36:14;15.60;1.00
21207;DHT22;10761;48.532;8.026;2023-04-23T07:38:40;15.50;99.90
21207;DHT22;10761;48.532;8.026;2023-04-23T07:41:15;15.50;99.90
21207;DHT22;10761;48.532;8.026;2023-04-23T07:43:41;15.20;1.00
21207;DHT22;10761;48.532;8.026;2023-04-23T07:46:07;15.30;1.00
21207;DHT22;10761;48.532;8.026;2023-04-23T07:48:33;15.30;1.00
21207;DHT22;10761;48.532;8.026;2023-04-23T07:51:00;15.90;99.90
21207;DHT22;10761;48.532;8.026;2023-04-23T07:53:26;16.80;99.90
21207;DHT22;10761;48.532;8.026;2023-04-23T07:55:53;17.20;1.00
21207;DHT22;10761;48.532;8.026;2023-04-23T07:58:20;17.80;99.90
21207;DHT22;10761;48.532;8.026;2023-04-23T08:00:45;17.90;99.90
21207;DHT22;10761;48.532;8.026;2023-04-23T08:03:11;18.40;8.90
21207;DHT22;10761;48.532;8.026;2023-04-23T08:05:37;18.70;1.00
21207;DHT22;10761;48.532;8.026;2023-04-23T08:08:03;18.60;1.00
21207;DHT22;10761;48.532;8.026;2023-04-23T08:10:29;18.30;1.00
21207;DHT22;10761;48.532;8.026;2023-04-23T08:12:54;18.70;1.00
21207;DHT22;10761;48.532;8.026;2023-04-23T08:15:20;18.90;1.00
21207;DHT22;10761;48.532;8.026;2023-04-23T08:17:45;18.80;1.00
21207;DHT22;10761;48.532;8.026;2023-04-23T08:20:11;18.90;1.00
21207;DHT22;10761;48.532;8.026;2023-04-23T08:22:36;19.00;1.00
21207;DHT22;10761;48.532;8.026;2023-04-23T08:25:02;18.00;1.00
21207;DHT22;10761;48.532;8.026;2023-04-23T08:27:29;17.80;1.00
21207;DHT22;10761;48.532;8.026;2023-04-23T08:29:55;17.30;1.00
21207;DHT22;10761;48.532;8.026;2023-04-23T08:32:20;17.40;1.00
21207;DHT22;10761;48.532;8.026;2023-04-23T08:34:46;17.10;1.00
21207;DHT22;10761;48.532;8.026;2023-04-23T08:37:11;17.50;1.00
21207;DHT22;10761;48.532;8.026;2023-04-23T08:39:37;17.60;1.00
21207;DHT22;10761;48.532;8.026;2023-04-23T08:42:26;17.20;1.00
21207;DHT22;10761;48.532;8.026;2023-04-23T08:44:55;17.30;1.00
21207;DHT22;10761;48.532;8.026;2023-04-23T08:47:23;17.50;1.00
21207;DHT22;10761;48.532;8.026;2023-04-23T08:49:53;17.30;1.00
21207;DHT22;10761;48.532;8.026;2023-04-23T08:52:22;17.50;1.00
21207;DHT22;10761;48.532;8.026;2023-04-23T08:54:51;17.70;1.00
21207;DHT22;10761;48.532;8.026;2023-04-23T08:57:17;18.30;1.00
21207;DHT22;10761;48.532;8.026;2023-04-23T08:59:44;18.60;1.00
21207;DHT22;10761;48.532;8.026;2023-04-23T09:02:10;18.80;1.00
21207;DHT22;10761;48.532;8.026;2023-04-23T09:04:37;19.10;1.00
21207;DHT22;10761;48.532;8.026;2023-04-23T09:07:03;19.40;1.00
21207;DHT22;10761;48.532;8.026;2023-04-23T09:09:36;19.30;1.00
21207;DHT22;10761;48.532;8.026;2023-04-23T09:12:06;19.00;1.00
21207;DHT22;10761;48.532;8.026;2023-04-23T09:14:33;19.00;1.00
21207;DHT22;10761;48.532;8.026;2023-04-23T09:16:58;18.60;1.00
21207;DHT22;10761;48.532;8.026;2023-04-23T09:19:27;17.90;1.00
21207;DHT22;10761;48.532;8.026;2023-04-23T09:21:53;17.90;1.00
21207;DHT22;10761;48.532;8.026;2023-04-23T09:24:23;17.80;1.00
21207;DHT22;10761;48.532;8.026;2023-04-23T09:26:50;18.40;1.00
21207;DHT22;10761;48.532;8.026;2023-04-23T09:29:26;18.90;1.00
21207;DHT22;10761;48.532;8.026;2023-04-23T09:31:55;19.10;1.00
21207;DHT22;10761;48.532;8.026;2023-04-23T09:34:23;19.30;1.00
21207;DHT22;10761;48.532;8.026;2023-04-23T09:36:50;19.30;1.00
21207;DHT22;10761;48.532;8.026;2023-04-23T09:39:18;18.90;1.00
21207;DHT22;10761;48.532;8.026;2023-04-23T09:41:44;18.70;1.00
21207;DHT22;10761;48.532;8.026;2023-04-23T09:44:11;18.30;1.00
21207;DHT22;10761;48.532;8.026;2023-04-23T09:46:42;18.10;1.00
21207;DHT22;10761;48.532;8.026;2023-04-23T09:49:09;18.10;1.00
21207;DHT22;10761;48.532;8.026;2023-04-23T09:51:36;18.30;1.00
21207;DHT22;10761;48.532;8.026;2023-04-23T09:54:02;18.40;1.00
21207;DHT22;10761;48.532;8.026;2023-04-23T09:56:29;18.30;1.00
21207;DHT22;10761;48.532;8.026;2023-04-23T09:58:56;18.20;1.00
21207;DHT22;10761;48.532;8.026;2023-04-23T10:01:28;18.20;1.00
21207;DHT22;10761;48.532;8.026;2023-04-23T10:03:54;18.20;1.00
21207;DHT22;10761;48.532;8.026;2023-04-23T10:06:29;18.40;1.00
21207;DHT22;10761;48.532;8.026;2023-04-23T10:08:56;18.40;1.00
21207;DHT22;10761;48.532;8.026;2023-04-23T10:11:25;18.70;1.00
21207;DHT22;10761;48.532;8.026;2023-04-23T10:13:53;19.00;1.00
21207;DHT22;10761;48.532;8.026;2023-04-23T10:16:21;19.30;1.00
21207;DHT22;10761;48.532;8.026;2023-04-23T10:18:48;19.20;1.00
21207;DHT22;10761;48.532;8.026;2023-04-23T10:21:15;18.90;1.00
21207;DHT22;10761;48.532;8.026;2023-04-23T10:23:43;18.90;1.00
21207;DHT22;10761;48.532;8.026;2023-04-23T10:26:14;18.80;1.00
21207;DHT22;10761;48.532;8.026;2023-04-23T10:28:46;18.80;1.00
21207;DHT22;10761;48.532;8.026;2023-04-23T10:31:12;19.00;1.00
21207;DHT22;10761;48.532;8.026;2023-04-23T10:33:38;19.40;1.00
21207;DHT22;10761;48.532;8.026;2023-04-23T10:36:05;19.60;1.00
21207;DHT22;10761;48.532;8.026;2023-04-23T10:38:31;19.90;1.00
21207;DHT22;10761;48.532;8.026;2023-04-23T10:41:00;19.20;99.90
21207;DHT22;10761;48.532;8.026;2023-04-23T10:43:27;19.00;99.90
21207;DHT22;10761;48.532;8.026;2023-04-23T10:45:53;19.40;1.00
21207;DHT22;10761;48.532;8.026;2023-04-23T10:48:19;19.80;99.90
21207;DHT22;10761;48.532;8.026;2023-04-23T10:50:45;20.20;99.90
21207;DHT22;10761;48.532;8.026;2023-04-23T10:53:21;20.60;99.90
21207;DHT22;10761;48.532;8.026;2023-04-23T10:55:46;20.80;99.90
21207;DHT22;10761;48.532;8.026;2023-04-23T10:58:12;20.70;99.90
21207;DHT22;10761;48.532;8.026;2023-04-23T11:03:36;20.60;99.90
21207;DHT22;10761;48.532;8.026;2023-04-23T11:06:04;20.40;99.90
21207;DHT22;10761;48.532;8.026;2023-04-23T11:08:31;20.30;99.90
21207;DHT22;10761;48.532;8.026;2023-04-23T11:10:58;20.30;99.90
21207;DHT22;10761;48.532;8.026;2023-04-23T11:13:25;20.50;99.90
21207;DHT22;10761;48.532;8.026;2023-04-23T11:16:16;20.70;99.90
21207;DHT22;10761;48.532;8.026;2023-04-23T11:19:28;21.10;99.90
21207;DHT22;10761;48.532;8.026;2023-04-23T11:22:00;21.30;99.90
21207;DHT22;10761;48.532;8.026;2023-04-23T11:24:27;21.40;99.90
21207;DHT22;10761;48.532;8.026;2023-04-23T11:26:54;20.70;99.90
21207;DHT22;10761;48.532;8.026;2023-04-23T11:29:21;20.40;99.90
21207;DHT22;10761;48.532;8.026;2023-04-23T11:31:50;20.50;99.90
21207;DHT22;10761;48.532;8.026;2023-04-23T11:34:16;20.90;99.90
21207;DHT22;10761;48.532;8.026;2023-04-23T11:36:43;21.60;99.90
21207;DHT22;10761;48.532;8.026;2023-04-23T11:39:08;21.80;99.90
21207;DHT22;10761;48.532;8.026;2023-04-23T11:41:35;22.00;99.90
21207;DHT22;10761;48.532;8.026;2023-04-23T11:44:03;22.10;99.90
21207;DHT22;10761;48.532;8.026;2023-04-23T11:46:32;22.20;99.90
21207;DHT22;10761;48.532;8.026;2023-04-23T11:49:01;21.90;99.90
21207;DHT22;10761;48.532;8.026;2023-04-23T11:51:27;21.20;99.90
21207;DHT22;10761;48.532;8.026;2023-04-23T11:53:53;20.60;99.90
21207;DHT22;10761;48.532;8.026;2023-04-23T11:56:19;21.10;99.90
21207;DHT22;10761;48.532;8.026;2023-04-23T11:58:45;21.70;99.90
21207;DHT22;10761;48.532;8.026;2023-04-23T12:01:11;22.20;99.90
21207;DHT22;10761;48.532;8.026;2023-04-23T12:03:39;22.00;99.90
21207;DHT22;10761;48.532;8.026;2023-04-23T12:06:05;22.00;99.90
21207;DHT22;10761;48.532;8.026;2023-04-23T12:08:33;22.20;99.90
21207;DHT22;10761;48.532;8.026;2023-04-23T12:11:04;22.10;99.90
21207;DHT22;10761;48.532;8.026;2023-04-23T12:13:31;22.00;99.90
21207;DHT22;10761;48.532;8.026;2023-04-23T12:16:02;22.20;99.90
21207;DHT22;10761;48.532;8.026;2023-04-23T12:18:29;22.10;99.90
21207;DHT22;10761;48.532;8.026;2023-04-23T12:21:03;22.10;99.90
21207;DHT22;10761;48.532;8.026;2023-04-23T12:23:29;22.30;99.90
21207;DHT22;10761;48.532;8.026;2023-04-23T12:25:55;22.10;99.90
21207;DHT22;10761;48.532;8.026;2023-04-23T12:28:22;21.90;99.90
21207;DHT22;10761;48.532;8.026;2023-04-23T12:30:49;21.30;99.90
21207;DHT22;10761;48.532;8.026;2023-04-23T12:33:15;20.90;99.90
21207;DHT22;10761;48.532;8.026;2023-04-23T12:35:43;21.00;99.90
21207;DHT22;10761;48.532;8.026;2023-04-23T12:38:27;21.60;99.90
21207;DHT22;10761;48.532;8.026;2023-04-23T12:40:58;22.00;99.90
21207;DHT22;10761;48.532;8.026;2023-04-23T12:43:25;21.60;99.90
21207;DHT22;10761;48.532;8.026;2023-04-23T12:45:51;21.10;99.90
21207;DHT22;10761;48.532;8.026;2023-04-23T12:48:17;20.90;99.90
21207;DHT22;10761;48.532;8.026;2023-04-23T12:50:44;20.80;99.90
21207;DHT22;10761;48.532;8.026;2023-04-23T12:53:11;20.50;99.90
21207;DHT22;10761;48.532;8.026;2023-04-23T12:55:37;20.60;99.90
21207;DHT22;10761;48.532;8.026;2023-04-23T12:58:07;20.80;99.90
21207;DHT22;10761;48.532;8.026;2023-04-23T13:00:33;21.40;99.90
21207;DHT22;10761;48.532;8.026;2023-04-23T13:03:00;21.50;99.90
21207;DHT22;10761;48.532;8.026;2023-04-23T13:05:25;21.20;99.90
21207;DHT22;10761;48.532;8.026;2023-04-23T13:07:51;20.90;99.90
21207;DHT22;10761;48.532;8.026;2023-04-23T13:10:18;20.90;99.90
21207;DHT22;10761;48.532;8.026;2023-04-23T13:12:43;20.80;99.90
21207;DHT22;10761;48.532;8.026;2023-04-23T13:15:09;20.70;99.90
21207;DHT22;10761;48.532;8.026;2023-04-23T13:17:37;20.90;99.90
21207;DHT22;10761;48.532;8.026;2023-04-23T13:20:03;21.00;99.90
21207;DHT22;10761;48.532;8.026;2023-04-23T13:22:29;20.90;99.90
21207;DHT22;10761;48.532;8.026;2023-04-23T13:24:56;21.30;99.90
21207;DHT22;10761;48.532;8.026;2023-04-23T13:27:27;21.40;99.90
21207;DHT22;10761;48.532;8.026;2023-04-23T13:29:52;21.30;99.90
21207;DHT22;10761;48.532;8.026;2023-04-23T13:32:18;21.20;99.90
21207;DHT22;10761;48.532;8.026;2023-04-23T13:34:44;21.10;99.90
21207;DHT22;10761;48.532;8.026;2023-04-23T13:37:09;21.10;99.90
21207;DHT22;10761;48.532;8.026;2023-04-23T13:39:36;21.00;99.90
21207;DHT22;10761;48.532;8.026;2023-04-23T13:42:02;21.00;99.90
21207;DHT22;10761;48.532;8.026;2023-04-23T13:44:31;20.90;99.90
21207;DHT22;10761;48.532;8.026;2023-04-23T13:46:57;20.90;99.90
21207;DHT22;10761;48.532;8.026;2023-04-23T13:49:24;21.00;99.90
21207;DHT22;10761;48.532;8.026;2023-04-23T13:51:50;21.30;99.90
21207;DHT22;10761;48.532;8.026;2023-04-23T13:54:18;21.60;99.90
21207;DHT22;10761;48.532;8.026;2023-04-23T13:56:44;21.80;99.90
21207;DHT22;10761;48.532;8.026;2023-04-23T13:59:10;21.60;99.90
21207;DHT22;10761;48.532;8.026;2023-04-23T14:01:37;21.20;99.90
21207;DHT22;10761;48.532;8.026;2023-04-23T14:04:03;21.00;99.90
21207;DHT22;10761;48.532;8.026;2023-04-23T14:06:28;20.90;99.90
21207;DHT22;10761;48.532;8.026;2023-04-23T14:08:54;21.10;99.90
21207;DHT22;10761;48.532;8.026;2023-04-23T14:11:20;21.10;99.90
21207;DHT22;10761;48.532;8.026;2023-04-23T14:13:47;20.90;99.90
21207;DHT22;10761;48.532;8.026;2023-04-23T14:16:12;21.00;99.90
21207;DHT22;10761;48.532;8.026;2023-04-23T14:18:38;21.00;99.90
21207;DHT22;10761;48.532;8.026;2023-04-23T14:21:03;21.10;99.90
21207;DHT22;10761;48.532;8.026;2023-04-23T14:29:09;20.40;99.90
21207;DHT22;10761;48.532;8.026;2023-04-23T14:31:36;20.30;99.90
21207;DHT22;10761;48.532;8.026;2023-04-23T14:34:05;20.30;99.90
21207;DHT22;10761;48.532;8.026;2023-04-23T14:36:31;20.20;99.90
21207;DHT22;10761;48.532;8.026;2023-04-23T14:38:57;20.20;99.90
21207;DHT22;10761;48.532;8.026;2023-04-23T14:41:26;20.30;99.90
21207;DHT22;10761;48.532;8.026;2023-04-23T14:43:52;20.20;99.90
21207;DHT22;10761;48.532;8.026;2023-04-23T14:46:17;20.20;99.90
21207;DHT22;10761;48.532;8.026;2023-04-23T14:48:43;20.10;99.90
21207;DHT22;10761;48.532;8.026;2023-04-23T14:51:08;19.90;99.90
21207;DHT22;10761;48.532;8.026;2023-04-23T14:53:34;19.90;99.90
21207;DHT22;10761;48.532;8.026;2023-04-23T14:56:00;19.80;99.90
21207;DHT22;10761;48.532;8.026;2023-04-23T14:58:25;19.70;99.90
21207;DHT22;10761;48.532;8.026;2023-04-23T15:00:51;19.70;99.90
21207;DHT22;10761;48.532;8.026;2023-04-23T15:03:16;19.60;99.90
21207;DHT22;10761;48.532;8.026;2023-04-23T15:05:42;19.60;99.90
21207;DHT22;10761;48.532;8.026;2023-04-23T15:08:08;19.70;99.90
21207;DHT22;10761;48.532;8.026;2023-04-23T15:10:34;19.80;99.90
21207;DHT22;10761;48.532;8.026;2023-04-23T15:13:07;19.80;99.90
21207;DHT22;10761;48.532;8.026;2023-04-23T15:15:50;19.80;99.90
21207;DHT22;10761;48.532;8.026;2023-04-23T15:18:20;19.70;99.90
21207;DHT22;10761;48.532;8.026;2023-04-23T15:20:46;19.40;99.90
21207;DHT22;10761;48.532;8.026;2023-04-23T15:23:11;19.30;99.90
21207;DHT22;10761;48.532;8.026;2023-04-23T15:25:37;19.10;99.90
21207;DHT22;10761;48.532;8.026;2023-04-23T15:28:04;19.00;99.90
21207;DHT22;10761;48.532;8.026;2023-04-23T15:30:31;18.70;99.90
21207;DHT22;10761;48.532;8.026;2023-04-23T15:32:56;18.40;99.90
21207;DHT22;10761;48.532;8.026;2023-04-23T15:35:23;17.80;99.90
21207;DHT22;10761;48.532;8.026;2023-04-23T15:37:49;17.30;1.00
21207;DHT22;10761;48.532;8.026;2023-04-23T15:40:15;16.90;1.00